createdAt,value
2023-02-19T00:01:42.720Z,4.80
2023-02-19T00:04:18.272Z,3.77
2023-02-19T00:06:46.237Z,4.57
2023-02-19T00:09:15.194Z,6.03
2023-02-19T00:11:43.050Z,3.17
2023-02-19T00:14:14.444Z,4.57
2023-02-19T00:16:41.278Z,5.37
2023-02-19T00:19:13.773Z,3.20
2023-02-19T00:21:40.508Z,4.78
2023-02-19T00:24:08.111Z,3.13
2023-02-19T00:26:35.613Z,5.03
2023-02-19T00:29:02.657Z,3.60
2023-02-19T00:31:33.000Z,3.33
2023-02-19T00:34:03.482Z,5.30
2023-02-19T00:36:30.948Z,6.63
2023-02-19T00:38:57.746Z,6.47
2023-02-19T00:41:25.460Z,5.23
2023-02-19T00:44:04.332Z,2.50
2023-02-19T00:46:33.696Z,3.70
2023-02-19T00:49:00.936Z,8.20
2023-02-19T00:51:33.000Z,2.27
2023-02-19T00:54:00.258Z,4.00
2023-02-19T00:56:27.246Z,2.30
2023-02-19T00:58:54.406Z,3.27
2023-02-19T01:01:21.242Z,3.50
2023-02-19T01:03:48.460Z,2.70
2023-02-19T01:06:18.648Z,3.50
2023-02-19T01:08:45.676Z,2.53
2023-02-19T01:11:12.963Z,1.77
2023-02-19T01:13:40.326Z,4.40
2023-02-19T01:16:11.836Z,5.37
2023-02-19T01:18:39.378Z,2.93
2023-02-19T01:21:08.003Z,5.77
2023-02-19T01:23:36.091Z,3.30
2023-02-19T01:26:13.406Z,6.10
2023-02-19T01:28:40.583Z,4.50
2023-02-19T01:31:11.195Z,5.00
2023-02-19T01:33:38.061Z,8.47
2023-02-19T01:36:06.749Z,3.57
2023-02-19T01:38:33.449Z,4.87
2023-02-19T01:41:03.132Z,6.33
2023-02-19T01:43:35.022Z,6.10
2023-02-19T01:46:01.826Z,9.50
2023-02-19T01:48:37.055Z,6.17
2023-02-19T01:51:12.197Z,5.67
2023-02-19T01:53:46.130Z,6.93
2023-02-19T01:56:16.166Z,5.37
2023-02-19T01:58:43.342Z,6.80
2023-02-19T02:01:12.038Z,5.57
2023-02-19T02:03:41.926Z,4.53
2023-02-19T02:06:17.393Z,5.27
2023-02-19T02:09:03.580Z,6.47
2023-02-19T02:11:30.918Z,4.60
2023-02-19T02:13:58.667Z,4.73
2023-02-19T02:16:34.767Z,4.03
2023-02-19T02:19:40.497Z,6.30
2023-02-19T02:22:19.914Z,4.07
2023-02-19T02:25:21.706Z,2.93
2023-02-19T02:28:08.680Z,6.27
2023-02-19T02:30:43.678Z,7.07
2023-02-19T02:33:33.314Z,8.60
2023-02-19T02:36:06.565Z,4.43
2023-02-19T02:38:37.477Z,7.90
2023-02-19T02:41:05.662Z,7.40
2023-02-19T02:43:32.898Z,3.80
2023-02-19T02:45:59.873Z,5.27
2023-02-19T02:48:54.152Z,3.23
2023-02-19T02:51:32.034Z,3.73
2023-02-19T02:54:30.219Z,5.27
2023-02-19T02:56:58.718Z,4.83
2023-02-19T02:59:34.108Z,4.37
2023-02-19T03:02:19.132Z,4.17
2023-02-19T03:05:22.307Z,5.97
2023-02-19T03:08:04.765Z,3.08
2023-02-19T03:10:48.644Z,6.85
2023-02-19T03:14:00.401Z,4.10
2023-02-19T03:16:50.472Z,6.30
2023-02-19T03:19:20.671Z,6.37
2023-02-19T03:22:02.795Z,3.97
2023-02-19T03:24:56.546Z,2.33
2023-02-19T03:27:26.910Z,6.37
2023-02-19T03:29:56.981Z,4.67
2023-02-19T03:32:44.666Z,6.47
2023-02-19T03:35:22.175Z,5.40
2023-02-19T03:38:03.091Z,4.27
2023-02-19T03:40:34.519Z,7.70
2023-02-19T03:43:08.428Z,4.97
2023-02-19T03:45:47.444Z,5.10
2023-02-19T03:48:23.197Z,8.87
2023-02-19T03:51:01.244Z,4.33
2023-02-19T03:54:03.260Z,5.20
2023-02-19T03:56:36.584Z,5.83
2023-02-19T03:59:11.987Z,4.73
2023-02-19T04:01:54.137Z,6.27
2023-02-19T04:04:24.358Z,6.38
2023-02-19T04:06:55.552Z,5.27
2023-02-19T04:09:25.464Z,6.20
2023-02-19T04:11:53.914Z,6.53
2023-02-19T04:14:26.418Z,10.63
2023-02-19T04:17:03.225Z,7.82
2023-02-19T04:19:35.107Z,7.80
2023-02-19T04:22:04.495Z,6.97
2023-02-19T04:24:44.720Z,8.20
2023-02-19T04:27:11.692Z,6.33
2023-02-19T04:29:39.282Z,13.43
2023-02-19T04:32:06.830Z,6.87
2023-02-19T04:34:33.507Z,8.40
2023-02-19T04:37:00.162Z,7.03
2023-02-19T04:39:27.199Z,5.50
2023-02-19T04:41:53.933Z,6.80
2023-02-19T04:44:20.868Z,6.17
2023-02-19T04:46:48.146Z,7.40
2023-02-19T04:49:14.931Z,9.27
2023-02-19T04:51:42.098Z,5.17
2023-02-19T04:54:09.095Z,8.17
2023-02-19T04:56:35.873Z,5.67
2023-02-19T04:59:02.874Z,5.03
2023-02-19T05:01:29.916Z,5.23
2023-02-19T05:03:56.575Z,6.57
2023-02-19T05:06:23.272Z,5.80
2023-02-19T05:08:50.119Z,4.43
2023-02-19T05:11:17.308Z,3.77
2023-02-19T05:13:44.080Z,5.77
2023-02-19T05:16:16.467Z,4.30
2023-02-19T05:18:45.655Z,6.43
2023-02-19T05:21:12.667Z,7.73
2023-02-19T05:23:40.435Z,6.60
2023-02-19T05:26:09.053Z,7.47
2023-02-19T05:28:36.232Z,5.27
2023-02-19T05:31:09.058Z,4.90
2023-02-19T05:33:37.360Z,5.73
2023-02-19T05:36:13.025Z,5.83
2023-02-19T05:38:40.246Z,6.57
2023-02-19T05:41:18.631Z,5.17
2023-02-19T05:43:46.922Z,4.93
2023-02-19T05:46:16.053Z,7.73
2023-02-19T05:48:43.407Z,4.73
2023-02-19T05:51:12.900Z,7.47
2023-02-19T05:53:40.269Z,5.53
2023-02-19T05:56:33.100Z,7.10
2023-02-19T05:59:03.883Z,4.28
2023-02-19T06:01:30.941Z,6.30
2023-02-19T06:03:58.638Z,5.63
2023-02-19T06:06:27.000Z,2.97
2023-02-19T06:08:54.124Z,6.10
2023-02-19T06:11:21.241Z,4.27
2023-02-19T06:13:50.183Z,7.07
2023-02-19T06:16:17.960Z,5.50
2023-02-19T06:18:46.195Z,3.07
2023-02-19T06:21:13.882Z,5.53
2023-02-19T06:23:41.081Z,5.87
2023-02-19T06:26:12.229Z,3.13
2023-02-19T06:28:40.204Z,4.67
2023-02-19T06:31:08.193Z,3.67
2023-02-19T06:33:35.777Z,4.43
2023-02-19T06:36:05.002Z,4.40
2023-02-19T06:38:31.801Z,2.53
2023-02-19T06:41:03.380Z,3.53
2023-02-19T06:43:31.067Z,3.43
2023-02-19T06:46:06.184Z,3.37
2023-02-19T06:48:33.748Z,2.67
2023-02-19T06:51:00.574Z,2.33
2023-02-19T06:53:27.926Z,2.10
2023-02-19T06:56:07.988Z,2.00
2023-02-19T06:58:35.313Z,1.60
2023-02-19T07:01:02.013Z,2.40
2023-02-19T07:03:28.810Z,3.77
2023-02-19T07:05:55.889Z,0.60
2023-02-19T07:08:22.576Z,1.83
2023-02-19T07:10:59.320Z,3.07
2023-02-19T07:13:27.266Z,1.20
2023-02-19T07:16:02.977Z,0.93
2023-02-19T07:18:30.451Z,0.50
2023-02-19T07:21:06.405Z,0.40
2023-02-19T07:23:33.207Z,2.90
2023-02-19T07:26:00.068Z,1.17
2023-02-19T07:28:27.279Z,0.80
2023-02-19T07:30:54.561Z,1.53
2023-02-19T07:33:21.220Z,0.80
2023-02-19T07:35:49.131Z,0.30
2023-02-19T07:38:23.572Z,0.70
2023-02-19T07:40:53.217Z,0.30
2023-02-19T07:43:20.279Z,0.70
2023-02-19T07:45:47.265Z,0.47
2023-02-19T07:48:14.245Z,0.80
2023-02-19T07:50:41.591Z,0.57
2023-02-19T07:53:08.250Z,0.60
2023-02-19T07:55:35.466Z,0.97
2023-02-19T07:58:02.105Z,1.90
2023-02-19T08:00:28.786Z,2.07
2023-02-19T08:03:02.842Z,0.47
2023-02-19T08:05:34.374Z,0.30
2023-02-19T08:08:01.152Z,1.77
2023-02-19T08:10:46.866Z,0.87
2023-02-19T08:13:25.662Z,0.73
2023-02-19T08:15:56.320Z,1.57
2023-02-19T08:18:26.874Z,1.33
2023-02-19T08:20:55.457Z,0.43
2023-02-19T08:23:22.479Z,0.50
2023-02-19T08:25:50.510Z,4.03
2023-02-19T08:28:18.465Z,1.20
2023-02-19T08:30:47.308Z,0.50
2023-02-19T08:33:19.420Z,0.90
2023-02-19T08:35:46.583Z,0.30
2023-02-19T08:38:14.578Z,0.47
2023-02-19T08:40:41.622Z,0.77
2023-02-19T08:43:11.348Z,0.70
2023-02-19T08:45:40.383Z,0.50
2023-02-19T08:48:07.963Z,1.17
2023-02-19T08:50:35.677Z,1.07
2023-02-19T08:53:03.987Z,0.73
2023-02-19T08:55:31.082Z,0.70
2023-02-19T08:57:57.983Z,1.50
2023-02-19T09:00:24.760Z,2.27
2023-02-19T09:02:51.644Z,0.87
2023-02-19T09:05:18.424Z,0.73
2023-02-19T09:07:45.064Z,0.30
2023-02-19T09:10:13.742Z,0.40
2023-02-19T09:12:41.036Z,0.30
2023-02-19T09:15:08.086Z,0.30
2023-02-19T09:17:35.077Z,0.20
2023-02-19T09:20:01.806Z,0.20
2023-02-19T09:22:28.532Z,0.50
2023-02-19T09:24:55.560Z,0.40
2023-02-19T09:27:22.187Z,2.30
2023-02-19T09:29:48.831Z,0.20
2023-02-19T09:32:17.504Z,0.40
2023-02-19T09:34:45.578Z,0.60
2023-02-19T09:37:12.204Z,0.20
2023-02-19T09:39:39.136Z,0.20
2023-02-19T09:42:22.401Z,0.70
2023-02-19T09:44:52.321Z,0.83
2023-02-19T09:47:21.911Z,0.30
2023-02-19T09:49:52.357Z,0.30
2023-02-19T09:52:24.384Z,0.30
2023-02-19T09:54:52.184Z,0.63
2023-02-19T09:57:21.712Z,0.70
2023-02-19T09:59:52.045Z,0.27
2023-02-19T10:02:21.487Z,2.50
2023-02-19T10:04:51.282Z,0.30
2023-02-19T10:07:46.005Z,0.30
2023-02-19T10:10:12.592Z,1.90
2023-02-19T10:12:48.068Z,1.40
2023-02-19T10:15:36.905Z,0.67
2023-02-19T10:18:05.736Z,1.40
2023-02-19T10:20:32.557Z,0.73
2023-02-19T10:23:02.204Z,1.57
2023-02-19T10:25:30.207Z,0.50
2023-02-19T10:27:59.589Z,0.93
2023-02-19T10:30:31.836Z,1.17
2023-02-19T10:33:13.454Z,1.63
2023-02-19T10:35:58.909Z,2.77
2023-02-19T10:38:40.386Z,1.00
2023-02-19T10:41:14.514Z,2.73
2023-02-19T10:43:50.241Z,2.20
2023-02-19T10:46:22.354Z,0.70
2023-02-19T10:48:55.062Z,0.68
2023-02-19T10:51:31.464Z,2.08
2023-02-19T10:54:35.475Z,1.27
2023-02-19T10:57:30.284Z,1.53
2023-02-19T11:00:22.813Z,0.93
2023-02-19T11:02:50.185Z,1.52
2023-02-19T11:05:22.411Z,1.43
2023-02-19T11:07:57.331Z,2.22
2023-02-19T11:10:28.426Z,2.93
2023-02-19T11:12:59.444Z,1.43
2023-02-19T11:15:32.338Z,4.83
2023-02-19T11:20:50.809Z,2.83
2023-02-19T11:23:22.488Z,0.77
2023-02-19T11:25:50.571Z,2.63
2023-02-19T11:28:17.945Z,1.83
2023-02-19T11:30:47.662Z,0.67
2023-02-19T11:33:17.037Z,2.70
2023-02-19T11:35:45.017Z,3.60
2023-02-19T11:38:14.492Z,4.47
2023-02-19T11:40:53.616Z,1.50
2023-02-19T11:43:32.618Z,1.90
2023-02-19T11:46:07.181Z,2.70
2023-02-19T11:48:54.906Z,1.70
2023-02-19T11:51:31.513Z,2.40
2023-02-19T11:54:19.109Z,3.43
2023-02-19T11:56:53.533Z,0.77
2023-02-19T11:59:30.294Z,3.60
2023-02-19T12:02:17.914Z,1.00
2023-02-19T12:04:59.168Z,1.63
2023-02-19T12:07:41.070Z,4.23
2023-02-19T12:10:34.246Z,4.43
2023-02-19T12:13:13.854Z,1.13
2023-02-19T12:16:05.214Z,3.23
2023-02-19T12:18:49.746Z,1.53
2023-02-19T12:21:22.452Z,4.30
2023-02-19T12:24:12.361Z,5.63
2023-02-19T12:27:24.505Z,5.07
2023-02-19T12:30:03.357Z,1.03
2023-02-19T12:32:52.527Z,4.23
2023-02-19T12:35:34.930Z,0.77
2023-02-19T12:38:29.843Z,3.28
2023-02-19T12:41:19.722Z,1.03
2023-02-19T12:43:54.010Z,2.47
2023-02-19T12:46:36.507Z,1.43
2023-02-19T12:49:20.081Z,1.05
2023-02-19T12:51:49.571Z,2.60
2023-02-19T12:54:31.163Z,2.57
2023-02-19T12:57:01.387Z,3.07
2023-02-19T12:59:42.503Z,2.87
2023-02-19T13:02:24.104Z,1.73
2023-02-19T13:05:02.897Z,1.37
2023-02-19T13:07:47.804Z,2.23
2023-02-19T13:10:39.492Z,2.43
2023-02-19T13:13:12.582Z,1.67
2023-02-19T13:15:46.516Z,1.77
2023-02-19T13:18:40.896Z,2.63
2023-02-19T13:21:09.610Z,1.77
2023-02-19T13:23:59.738Z,0.97
2023-02-19T13:26:49.415Z,1.67
2023-02-19T13:29:21.633Z,2.23
2023-02-19T13:31:57.128Z,1.83
2023-02-19T13:34:29.621Z,0.97
2023-02-19T13:36:56.765Z,1.85
2023-02-19T13:39:23.806Z,1.63
2023-02-19T13:41:53.208Z,0.77
2023-02-19T13:44:23.217Z,2.43
2023-02-19T13:46:50.834Z,4.73
2023-02-19T13:49:30.070Z,1.27
2023-02-19T13:52:26.974Z,1.23
2023-02-19T13:55:31.837Z,0.93
2023-02-19T13:58:35.426Z,2.47
2023-02-19T14:01:08.244Z,2.23
2023-02-19T14:03:34.844Z,1.50
2023-02-19T14:06:06.548Z,3.00
2023-02-19T14:08:58.877Z,2.07
2023-02-19T14:11:44.332Z,2.63
2023-02-19T14:14:23.109Z,3.13
2023-02-19T14:16:57.071Z,4.47
2023-02-19T14:19:41.936Z,2.83
2023-02-19T14:22:57.971Z,1.87
2023-02-19T14:25:27.840Z,1.97
2023-02-19T14:28:11.752Z,1.30
2023-02-19T14:31:01.048Z,1.23
2023-02-19T14:33:36.404Z,1.43
2023-02-19T14:36:18.154Z,1.93
2023-02-19T14:38:58.564Z,1.00
2023-02-19T14:41:27.070Z,1.43
2023-02-19T14:43:56.551Z,2.07
2023-02-19T14:46:37.979Z,1.80
2023-02-19T14:49:18.440Z,1.13
2023-02-19T14:51:51.550Z,3.57
2023-02-19T14:54:20.960Z,3.37
2023-02-19T14:56:52.565Z,2.20
2023-02-19T14:59:24.292Z,2.80
2023-02-19T15:02:27.240Z,1.97
2023-02-19T15:04:54.707Z,1.17
2023-02-19T15:07:33.375Z,1.23
2023-02-19T15:10:05.837Z,1.47
2023-02-19T15:13:06.783Z,2.70
2023-02-19T15:15:40.925Z,2.23
2023-02-19T15:18:07.848Z,1.43
2023-02-19T15:20:38.031Z,1.23
2023-02-19T15:23:08.416Z,4.57
2023-02-19T15:25:38.215Z,1.67
2023-02-19T15:28:23.941Z,0.97
2023-02-19T15:30:52.134Z,1.80
2023-02-19T15:33:20.444Z,2.37
2023-02-19T15:35:56.145Z,1.00
2023-02-19T15:38:22.929Z,1.97
2023-02-19T15:40:50.561Z,1.73
2023-02-19T15:43:28.512Z,1.63
2023-02-19T15:46:01.346Z,3.17
2023-02-19T15:51:08.284Z,3.50
2023-02-19T15:53:42.932Z,0.97
2023-02-19T15:56:20.664Z,1.40
2023-02-19T15:59:13.651Z,2.77
2023-02-19T16:01:40.812Z,1.15
2023-02-19T16:04:15.405Z,0.70
2023-02-19T16:06:52.937Z,1.63
2023-02-19T16:09:22.030Z,4.50
2023-02-19T16:11:54.521Z,1.50
2023-02-19T16:14:39.233Z,1.98
2023-02-19T16:17:12.684Z,1.83
2023-02-19T16:19:48.598Z,1.53
2023-02-19T16:22:19.687Z,2.57
2023-02-19T16:24:50.186Z,1.47
2023-02-19T16:27:37.647Z,1.40
2023-02-19T16:30:32.264Z,3.37
2023-02-19T16:33:36.932Z,2.33
2023-02-19T16:36:41.919Z,4.30
2023-02-19T16:39:08.647Z,1.40
2023-02-19T16:41:41.088Z,1.80
2023-02-19T16:44:31.212Z,3.15
2023-02-19T16:47:13.761Z,3.67
2023-02-19T16:49:42.800Z,4.43
2023-02-19T16:52:14.748Z,2.63
2023-02-19T16:54:41.511Z,2.33
2023-02-19T16:57:08.475Z,1.00
2023-02-19T16:59:35.174Z,2.97
2023-02-19T17:02:05.271Z,2.37
2023-02-19T17:04:32.315Z,3.53
2023-02-19T17:06:59.013Z,3.00
2023-02-19T17:09:25.778Z,3.67
2023-02-19T17:11:52.549Z,2.73
2023-02-19T17:14:19.484Z,3.03
2023-02-19T17:16:46.908Z,2.70
2023-02-19T17:19:17.395Z,4.13
2023-02-19T17:21:45.313Z,1.87
2023-02-19T17:24:12.245Z,2.47
2023-02-19T17:26:39.413Z,2.20
2023-02-19T17:29:07.466Z,1.77
2023-02-19T17:31:34.464Z,2.47
2023-02-19T17:34:01.372Z,2.13
2023-02-19T17:36:32.511Z,4.00
2023-02-19T17:39:00.632Z,2.63
2023-02-19T17:41:28.087Z,1.63
2023-02-19T17:43:55.267Z,2.90
2023-02-19T17:46:24.903Z,3.43
2023-02-19T17:48:51.927Z,3.03
2023-02-19T17:51:18.813Z,1.93
2023-02-19T17:53:46.730Z,1.10
2023-02-19T17:56:26.030Z,1.57
2023-02-19T17:58:53.627Z,2.47
2023-02-19T18:01:20.934Z,2.63
2023-02-19T18:03:47.791Z,1.47
2023-02-19T18:06:14.752Z,2.50
2023-02-19T18:08:48.335Z,5.63
2023-02-19T18:11:15.320Z,3.47
2023-02-19T18:13:42.054Z,3.33
2023-02-19T18:16:10.188Z,12.07
2023-02-19T18:18:37.265Z,7.30
2023-02-19T18:21:07.592Z,7.20
2023-02-19T18:23:34.458Z,8.30
2023-02-19T18:26:01.219Z,4.93
2023-02-19T18:28:27.915Z,3.93
2023-02-19T18:30:54.950Z,4.67
2023-02-19T18:33:21.709Z,3.47
2023-02-19T18:35:50.375Z,6.60
2023-02-19T18:38:17.333Z,4.53
2023-02-19T18:40:44.065Z,3.90
2023-02-19T18:43:10.886Z,6.23
2023-02-19T18:45:37.901Z,6.13
2023-02-19T18:48:05.162Z,6.47
2023-02-19T18:50:33.421Z,14.23
2023-02-19T18:53:00.227Z,9.60
2023-02-19T18:55:26.879Z,5.37
2023-02-19T18:57:53.656Z,2.97
2023-02-19T19:00:25.790Z,4.57
2023-02-19T19:02:57.723Z,7.85
2023-02-19T19:05:24.837Z,5.63
2023-02-19T19:07:55.631Z,3.10
2023-02-19T19:10:23.433Z,1.00
2023-02-19T19:12:50.522Z,4.00
2023-02-19T19:15:18.782Z,3.20
2023-02-19T19:17:46.291Z,2.40
2023-02-19T19:20:14.058Z,3.43
2023-02-19T19:22:40.997Z,5.63
2023-02-19T19:25:08.771Z,2.47
2023-02-19T19:27:35.489Z,4.33
2023-02-19T19:30:02.947Z,2.50
2023-02-19T19:32:29.654Z,1.10
2023-02-19T19:34:57.760Z,1.10
2023-02-19T19:37:28.424Z,2.53
2023-02-19T19:39:58.903Z,3.23
2023-02-19T19:42:25.789Z,1.20
2023-02-19T19:44:52.700Z,2.30
2023-02-19T19:47:19.524Z,2.13
2023-02-19T19:49:47.453Z,2.13
2023-02-19T19:52:14.896Z,1.77
2023-02-19T19:54:54.144Z,1.93
2023-02-19T19:57:21.440Z,1.37
2023-02-19T19:59:51.879Z,2.70
2023-02-19T20:02:19.476Z,3.97
2023-02-19T20:04:46.347Z,2.53
2023-02-19T20:07:41.522Z,3.30
2023-02-19T20:10:11.390Z,1.93
2023-02-19T20:12:43.438Z,2.10
2023-02-19T20:15:10.608Z,2.05
2023-02-19T20:17:37.647Z,1.40
2023-02-19T20:20:05.315Z,4.60
2023-02-19T20:22:32.266Z,4.13
2023-02-19T20:25:01.572Z,2.13
2023-02-19T20:27:28.926Z,2.50
2023-02-19T20:29:55.783Z,5.17
2023-02-19T20:32:22.903Z,3.70
2023-02-19T20:34:49.855Z,1.63
2023-02-19T20:37:16.631Z,2.50
2023-02-19T20:39:43.508Z,2.80
2023-02-19T20:42:10.581Z,2.40
2023-02-19T20:44:42.643Z,3.30
2023-02-19T20:47:09.495Z,2.42
2023-02-19T20:49:36.539Z,2.70
2023-02-19T20:52:07.370Z,2.30
2023-02-19T20:55:34.198Z,3.87
2023-02-19T20:58:00.903Z,2.40
2023-02-19T21:00:38.060Z,2.77
2023-02-19T21:06:48.283Z,2.00
2023-02-19T21:10:14.760Z,2.83
2023-02-19T21:12:42.335Z,2.67
2023-02-19T21:16:09.032Z,1.83
2023-02-19T21:18:50.722Z,1.83
2023-02-19T21:21:20.172Z,3.10
2023-02-19T21:24:46.748Z,1.93
2023-02-19T21:28:13.308Z,1.70
2023-02-19T21:31:40.124Z,0.50
2023-02-19T21:35:06.737Z,5.43
2023-02-19T21:38:15.704Z,2.00
2023-02-19T21:40:42.391Z,2.97
2023-02-19T21:47:00.557Z,2.70
2023-02-19T21:49:47.171Z,2.63
2023-02-19T21:53:13.967Z,1.33
2023-02-19T21:56:40.556Z,2.30
2023-02-19T22:00:07.533Z,2.83
2023-02-19T22:02:50.517Z,1.83
2023-02-19T22:05:46.067Z,2.00
2023-02-19T22:08:15.596Z,1.57
2023-02-19T22:10:42.687Z,1.13
2023-02-19T22:13:10.340Z,1.63
2023-02-19T22:15:39.750Z,1.37
2023-02-19T22:18:06.497Z,1.30
2023-02-19T22:20:34.912Z,0.83
2023-02-19T22:23:01.865Z,6.90
2023-02-19T22:25:28.644Z,1.67
2023-02-19T22:32:09.545Z,1.08
2023-02-19T22:34:40.735Z,1.47
2023-02-19T22:37:07.849Z,1.10
2023-02-19T22:39:34.775Z,1.97
2023-02-19T22:42:01.757Z,2.77
2023-02-19T22:44:29.069Z,1.77
2023-02-19T22:46:59.512Z,1.57
2023-02-19T22:49:26.420Z,0.73
2023-02-19T22:52:02.586Z,1.43
2023-02-19T22:54:29.503Z,1.10
2023-02-19T22:56:58.193Z,1.80
2023-02-19T22:59:25.181Z,1.57
2023-02-19T23:01:52.758Z,0.67
2023-02-19T23:04:25.094Z,1.40
2023-02-19T23:06:52.494Z,1.65
2023-02-19T23:09:22.651Z,0.87
2023-02-19T23:11:51.881Z,2.73
2023-02-19T23:14:20.776Z,1.20
2023-02-19T23:16:47.574Z,1.07
2023-02-19T23:19:15.990Z,1.43
2023-02-19T23:21:45.413Z,1.47
2023-02-19T23:24:13.869Z,0.70
2023-02-19T23:26:49.307Z,2.13
2023-02-19T23:29:23.468Z,0.50
2023-02-19T23:31:51.922Z,3.10
2023-02-19T23:34:19.584Z,1.90
2023-02-19T23:36:49.429Z,1.17
2023-02-19T23:39:19.990Z,2.17
2023-02-19T23:42:27.373Z,2.10
2023-02-19T23:45:53.899Z,1.60
2023-02-19T23:52:12.862Z,2.87
2023-02-19T23:54:39.607Z,1.60
2023-02-19T23:57:06.296Z,1.23
2023-02-19T23:59:33.072Z,0.73
